sensor_id;sensor_type;location;lat;lon;timestamp;P1;durP1;ratioP1;P2;durP2;ratioP2
69305;SDS011;56427;51.580;4.656;2022-07-10T00:00:14;6.20;;;1.53;;
69305;SDS011;56427;51.580;4.656;2022-07-10T00:02:42;6.82;;;1.90;;
69305;SDS011;56427;51.580;4.656;2022-07-10T00:05:08;7.07;;;1.70;;
69305;SDS011;56427;51.580;4.656;2022-07-10T00:07:35;6.22;;;1.55;;
69305;SDS011;56427;51.580;4.656;2022-07-10T00:10:01;5.97;;;1.73;;
69305;SDS011;56427;51.580;4.656;2022-07-10T00:12:27;7.90;;;1.50;;
69305;SDS011;56427;51.580;4.656;2022-07-10T00:14:52;6.90;;;1.40;;
69305;SDS011;56427;51.580;4.656;2022-07-10T00:17:17;6.70;;;1.33;;
69305;SDS011;56427;51.580;4.656;2022-07-10T00:19:43;7.47;;;1.60;;
69305;SDS011;56427;51.580;4.656;2022-07-10T00:22:08;2.72;;;1.42;;
69305;SDS011;56427;51.580;4.656;2022-07-10T00:24:34;5.80;;;1.50;;
69305;SDS011;56427;51.580;4.656;2022-07-10T00:26:59;7.20;;;1.67;;
69305;SDS011;56427;51.580;4.656;2022-07-10T00:29:24;5.87;;;1.60;;
69305;SDS011;56427;51.580;4.656;2022-07-10T00:31:50;4.40;;;1.50;;
69305;SDS011;56427;51.580;4.656;2022-07-10T00:34:15;7.27;;;1.73;;
69305;SDS011;56427;51.580;4.656;2022-07-10T00:36:40;6.43;;;2.00;;
69305;SDS011;56427;51.580;4.656;2022-07-10T00:39:06;5.37;;;1.87;;
69305;SDS011;56427;51.580;4.656;2022-07-10T00:41:31;7.37;;;2.20;;
69305;SDS011;56427;51.580;4.656;2022-07-10T00:43:57;4.87;;;1.60;;
69305;SDS011;56427;51.580;4.656;2022-07-10T00:46:24;5.47;;;1.60;;
69305;SDS011;56427;51.580;4.656;2022-07-10T00:48:51;6.32;;;2.08;;
69305;SDS011;56427;51.580;4.656;2022-07-10T00:51:18;8.88;;;1.98;;
69305;SDS011;56427;51.580;4.656;2022-07-10T00:53:46;4.28;;;1.90;;
69305;SDS011;56427;51.580;4.656;2022-07-10T00:56:15;8.50;;;1.80;;
69305;SDS011;56427;51.580;4.656;2022-07-10T00:58:42;9.32;;;2.42;;
69305;SDS011;56427;51.580;4.656;2022-07-10T01:01:08;5.95;;;1.80;;
69305;SDS011;56427;51.580;4.656;2022-07-10T01:03:34;6.97;;;1.83;;
69305;SDS011;56427;51.580;4.656;2022-07-10T01:05:59;6.50;;;2.00;;
69305;SDS011;56427;51.580;4.656;2022-07-10T01:08:25;5.93;;;1.77;;
69305;SDS011;56427;51.580;4.656;2022-07-10T01:10:52;4.53;;;1.90;;
69305;SDS011;56427;51.580;4.656;2022-07-10T01:13:17;6.10;;;2.17;;
69305;SDS011;56427;51.580;4.656;2022-07-10T01:15:43;8.35;;;1.98;;
69305;SDS011;56427;51.580;4.656;2022-07-10T01:18:09;7.15;;;1.80;;
69305;SDS011;56427;51.580;4.656;2022-07-10T01:20:35;7.03;;;2.17;;
69305;SDS011;56427;51.580;4.656;2022-07-10T01:23:00;8.65;;;2.33;;
69305;SDS011;56427;51.580;4.656;2022-07-10T01:25:26;6.25;;;1.90;;
69305;SDS011;56427;51.580;4.656;2022-07-10T01:27:52;7.50;;;2.00;;
69305;SDS011;56427;51.580;4.656;2022-07-10T01:30:17;10.27;;;2.70;;
69305;SDS011;56427;51.580;4.656;2022-07-10T01:32:44;5.50;;;2.30;;
69305;SDS011;56427;51.580;4.656;2022-07-10T01:35:09;8.88;;;2.60;;
69305;SDS011;56427;51.580;4.656;2022-07-10T01:37:35;7.03;;;2.30;;
69305;SDS011;56427;51.580;4.656;2022-07-10T01:40:00;10.07;;;2.50;;
69305;SDS011;56427;51.580;4.656;2022-07-10T01:42:25;6.43;;;2.80;;
69305;SDS011;56427;51.580;4.656;2022-07-10T01:44:51;5.67;;;2.37;;
69305;SDS011;56427;51.580;4.656;2022-07-10T01:47:16;5.25;;;2.38;;
69305;SDS011;56427;51.580;4.656;2022-07-10T01:49:42;9.47;;;2.50;;
69305;SDS011;56427;51.580;4.656;2022-07-10T01:52:07;6.30;;;2.70;;
69305;SDS011;56427;51.580;4.656;2022-07-10T01:54:32;6.97;;;2.10;;
69305;SDS011;56427;51.580;4.656;2022-07-10T01:56:58;5.13;;;2.40;;
69305;SDS011;56427;51.580;4.656;2022-07-10T01:59:23;5.95;;;2.63;;
69305;SDS011;56427;51.580;4.656;2022-07-10T02:01:49;7.23;;;2.37;;
69305;SDS011;56427;51.580;4.656;2022-07-10T02:04:14;9.00;;;2.60;;
69305;SDS011;56427;51.580;4.656;2022-07-10T02:06:58;6.57;;;2.63;;
69305;SDS011;56427;51.580;4.656;2022-07-10T02:09:23;7.10;;;2.47;;
69305;SDS011;56427;51.580;4.656;2022-07-10T02:11:49;7.73;;;2.40;;
69305;SDS011;56427;51.580;4.656;2022-07-10T02:14:14;8.17;;;2.60;;
69305;SDS011;56427;51.580;4.656;2022-07-10T02:16:40;5.80;;;2.40;;
69305;SDS011;56427;51.580;4.656;2022-07-10T02:19:05;5.63;;;2.20;;
69305;SDS011;56427;51.580;4.656;2022-07-10T02:21:30;7.27;;;2.53;;
69305;SDS011;56427;51.580;4.656;2022-07-10T02:23:55;8.03;;;2.90;;
69305;SDS011;56427;51.580;4.656;2022-07-10T02:26:21;7.53;;;2.80;;
69305;SDS011;56427;51.580;4.656;2022-07-10T02:28:46;8.10;;;2.27;;
69305;SDS011;56427;51.580;4.656;2022-07-10T02:31:12;4.90;;;2.80;;
69305;SDS011;56427;51.580;4.656;2022-07-10T02:33:37;5.82;;;2.70;;
69305;SDS011;56427;51.580;4.656;2022-07-10T02:36:03;6.60;;;2.70;;
69305;SDS011;56427;51.580;4.656;2022-07-10T02:38:29;7.67;;;2.47;;
69305;SDS011;56427;51.580;4.656;2022-07-10T02:40:54;10.25;;;2.85;;
69305;SDS011;56427;51.580;4.656;2022-07-10T02:43:20;9.77;;;3.03;;
69305;SDS011;56427;51.580;4.656;2022-07-10T02:45:45;7.40;;;3.17;;
69305;SDS011;56427;51.580;4.656;2022-07-10T02:48:11;9.75;;;2.78;;
69305;SDS011;56427;51.580;4.656;2022-07-10T02:50:36;7.10;;;2.63;;
69305;SDS011;56427;51.580;4.656;2022-07-10T02:53:01;10.77;;;2.60;;
69305;SDS011;56427;51.580;4.656;2022-07-10T02:55:28;8.18;;;2.53;;
69305;SDS011;56427;51.580;4.656;2022-07-10T02:57:53;8.33;;;2.80;;
69305;SDS011;56427;51.580;4.656;2022-07-10T03:00:19;7.90;;;2.63;;
69305;SDS011;56427;51.580;4.656;2022-07-10T03:02:44;7.13;;;3.03;;
69305;SDS011;56427;51.580;4.656;2022-07-10T03:05:09;8.13;;;3.07;;
69305;SDS011;56427;51.580;4.656;2022-07-10T03:07:35;6.60;;;2.90;;
69305;SDS011;56427;51.580;4.656;2022-07-10T03:10:00;5.63;;;2.90;;
69305;SDS011;56427;51.580;4.656;2022-07-10T03:12:25;7.53;;;2.93;;
69305;SDS011;56427;51.580;4.656;2022-07-10T03:14:51;4.67;;;3.03;;
69305;SDS011;56427;51.580;4.656;2022-07-10T03:17:16;6.50;;;2.93;;
69305;SDS011;56427;51.580;4.656;2022-07-10T03:19:41;10.73;;;3.70;;
69305;SDS011;56427;51.580;4.656;2022-07-10T03:22:06;7.30;;;3.70;;
69305;SDS011;56427;51.580;4.656;2022-07-10T03:24:32;9.97;;;3.43;;
69305;SDS011;56427;51.580;4.656;2022-07-10T03:26:57;11.27;;;3.93;;
69305;SDS011;56427;51.580;4.656;2022-07-10T03:29:22;11.10;;;4.30;;
69305;SDS011;56427;51.580;4.656;2022-07-10T03:31:48;10.20;;;3.80;;
69305;SDS011;56427;51.580;4.656;2022-07-10T03:34:13;8.47;;;3.70;;
69305;SDS011;56427;51.580;4.656;2022-07-10T03:36:38;10.00;;;4.40;;
69305;SDS011;56427;51.580;4.656;2022-07-10T03:39:04;6.95;;;3.70;;
69305;SDS011;56427;51.580;4.656;2022-07-10T03:41:29;7.67;;;3.50;;
69305;SDS011;56427;51.580;4.656;2022-07-10T03:43:55;7.17;;;3.53;;
69305;SDS011;56427;51.580;4.656;2022-07-10T03:46:20;9.13;;;3.57;;
69305;SDS011;56427;51.580;4.656;2022-07-10T03:48:45;8.13;;;3.37;;
69305;SDS011;56427;51.580;4.656;2022-07-10T03:51:11;9.10;;;3.00;;
69305;SDS011;56427;51.580;4.656;2022-07-10T03:53:36;8.15;;;2.80;;
69305;SDS011;56427;51.580;4.656;2022-07-10T03:56:02;6.43;;;2.73;;
69305;SDS011;56427;51.580;4.656;2022-07-10T03:58:28;6.00;;;2.50;;
69305;SDS011;56427;51.580;4.656;2022-07-10T04:00:53;6.13;;;2.60;;
69305;SDS011;56427;51.580;4.656;2022-07-10T04:03:19;9.30;;;2.83;;
69305;SDS011;56427;51.580;4.656;2022-07-10T04:05:45;7.43;;;2.63;;
69305;SDS011;56427;51.580;4.656;2022-07-10T04:08:10;12.67;;;2.80;;
69305;SDS011;56427;51.580;4.656;2022-07-10T04:10:35;5.33;;;2.40;;
69305;SDS011;56427;51.580;4.656;2022-07-10T04:13:01;7.20;;;2.50;;
69305;SDS011;56427;51.580;4.656;2022-07-10T04:15:27;5.37;;;2.27;;
69305;SDS011;56427;51.580;4.656;2022-07-10T04:17:52;5.40;;;2.17;;
69305;SDS011;56427;51.580;4.656;2022-07-10T04:20:18;8.20;;;2.20;;
69305;SDS011;56427;51.580;4.656;2022-07-10T04:22:45;5.32;;;2.80;;
69305;SDS011;56427;51.580;4.656;2022-07-10T04:25:10;9.80;;;3.43;;
69305;SDS011;56427;51.580;4.656;2022-07-10T04:27:36;6.45;;;2.50;;
69305;SDS011;56427;51.580;4.656;2022-07-10T04:30:02;6.93;;;3.27;;
69305;SDS011;56427;51.580;4.656;2022-07-10T04:32:28;9.05;;;2.85;;
69305;SDS011;56427;51.580;4.656;2022-07-10T04:34:54;7.50;;;2.70;;
69305;SDS011;56427;51.580;4.656;2022-07-10T04:37:20;6.18;;;2.60;;
69305;SDS011;56427;51.580;4.656;2022-07-10T04:39:45;9.90;;;2.87;;
69305;SDS011;56427;51.580;4.656;2022-07-10T04:42:11;5.93;;;2.37;;
69305;SDS011;56427;51.580;4.656;2022-07-10T04:44:36;5.80;;;2.15;;
69305;SDS011;56427;51.580;4.656;2022-07-10T04:47:02;9.03;;;2.20;;
69305;SDS011;56427;51.580;4.656;2022-07-10T04:49:28;6.85;;;2.42;;
69305;SDS011;56427;51.580;4.656;2022-07-10T04:51:54;11.93;;;2.63;;
69305;SDS011;56427;51.580;4.656;2022-07-10T04:54:19;5.03;;;2.08;;
69305;SDS011;56427;51.580;4.656;2022-07-10T04:56:45;6.47;;;2.07;;
69305;SDS011;56427;51.580;4.656;2022-07-10T04:59:10;6.57;;;2.10;;
69305;SDS011;56427;51.580;4.656;2022-07-10T05:01:36;8.07;;;2.38;;
69305;SDS011;56427;51.580;4.656;2022-07-10T05:04:04;7.43;;;1.90;;
69305;SDS011;56427;51.580;4.656;2022-07-10T05:06:30;8.43;;;2.20;;
69305;SDS011;56427;51.580;4.656;2022-07-10T05:08:55;8.80;;;1.90;;
69305;SDS011;56427;51.580;4.656;2022-07-10T05:11:21;8.52;;;2.30;;
69305;SDS011;56427;51.580;4.656;2022-07-10T05:13:47;6.70;;;1.80;;
69305;SDS011;56427;51.580;4.656;2022-07-10T05:16:16;6.80;;;1.80;;
69305;SDS011;56427;51.580;4.656;2022-07-10T05:18:42;5.55;;;1.80;;
69305;SDS011;56427;51.580;4.656;2022-07-10T05:21:08;6.33;;;1.93;;
69305;SDS011;56427;51.580;4.656;2022-07-10T05:23:34;9.35;;;2.50;;
69305;SDS011;56427;51.580;4.656;2022-07-10T05:26:00;5.43;;;2.00;;
69305;SDS011;56427;51.580;4.656;2022-07-10T05:28:25;4.88;;;1.80;;
69305;SDS011;56427;51.580;4.656;2022-07-10T05:30:50;5.80;;;1.60;;
69305;SDS011;56427;51.580;4.656;2022-07-10T05:33:16;5.50;;;1.90;;
69305;SDS011;56427;51.580;4.656;2022-07-10T05:35:42;5.50;;;1.70;;
69305;SDS011;56427;51.580;4.656;2022-07-10T05:38:07;7.10;;;1.80;;
69305;SDS011;56427;51.580;4.656;2022-07-10T05:40:33;6.87;;;2.00;;
69305;SDS011;56427;51.580;4.656;2022-07-10T05:42:58;4.80;;;2.07;;
69305;SDS011;56427;51.580;4.656;2022-07-10T05:45:23;12.65;;;1.98;;
69305;SDS011;56427;51.580;4.656;2022-07-10T05:47:49;9.90;;;2.47;;
69305;SDS011;56427;51.580;4.656;2022-07-10T05:50:14;7.50;;;2.93;;
69305;SDS011;56427;51.580;4.656;2022-07-10T05:52:40;6.53;;;2.40;;
69305;SDS011;56427;51.580;4.656;2022-07-10T05:55:05;12.00;;;2.55;;
69305;SDS011;56427;51.580;4.656;2022-07-10T05:57:32;5.27;;;2.37;;
69305;SDS011;56427;51.580;4.656;2022-07-10T05:59:58;5.25;;;2.10;;
69305;SDS011;56427;51.580;4.656;2022-07-10T06:02:23;8.03;;;2.20;;
69305;SDS011;56427;51.580;4.656;2022-07-10T06:04:49;6.53;;;2.07;;
69305;SDS011;56427;51.580;4.656;2022-07-10T06:07:14;9.33;;;2.40;;
69305;SDS011;56427;51.580;4.656;2022-07-10T06:09:40;7.10;;;2.42;;
69305;SDS011;56427;51.580;4.656;2022-07-10T06:12:05;6.47;;;2.10;;
69305;SDS011;56427;51.580;4.656;2022-07-10T06:14:31;5.77;;;2.20;;
69305;SDS011;56427;51.580;4.656;2022-07-10T06:16:56;8.27;;;1.90;;
69305;SDS011;56427;51.580;4.656;2022-07-10T06:19:21;6.40;;;2.27;;
69305;SDS011;56427;51.580;4.656;2022-07-10T06:21:47;7.93;;;2.13;;
69305;SDS011;56427;51.580;4.656;2022-07-10T06:24:12;8.57;;;2.17;;
69305;SDS011;56427;51.580;4.656;2022-07-10T06:26:37;5.47;;;1.90;;
69305;SDS011;56427;51.580;4.656;2022-07-10T06:29:02;8.90;;;1.80;;
69305;SDS011;56427;51.580;4.656;2022-07-10T06:31:28;7.03;;;1.80;;
69305;SDS011;56427;51.580;4.656;2022-07-10T06:33:53;8.45;;;1.50;;
69305;SDS011;56427;51.580;4.656;2022-07-10T06:36:19;8.07;;;1.30;;
69305;SDS011;56427;51.580;4.656;2022-07-10T06:38:44;5.10;;;1.53;;
69305;SDS011;56427;51.580;4.656;2022-07-10T06:41:09;7.83;;;1.53;;
69305;SDS011;56427;51.580;4.656;2022-07-10T06:43:35;4.13;;;1.43;;
69305;SDS011;56427;51.580;4.656;2022-07-10T06:46:00;6.20;;;1.50;;
69305;SDS011;56427;51.580;4.656;2022-07-10T06:48:26;6.43;;;1.93;;
69305;SDS011;56427;51.580;4.656;2022-07-10T06:50:53;7.10;;;1.83;;
69305;SDS011;56427;51.580;4.656;2022-07-10T06:53:18;5.13;;;1.20;;
69305;SDS011;56427;51.580;4.656;2022-07-10T06:55:48;5.55;;;1.48;;
69305;SDS011;56427;51.580;4.656;2022-07-10T06:58:15;4.70;;;1.27;;
69305;SDS011;56427;51.580;4.656;2022-07-10T07:00:40;5.60;;;1.47;;
69305;SDS011;56427;51.580;4.656;2022-07-10T07:03:05;6.20;;;1.83;;
69305;SDS011;56427;51.580;4.656;2022-07-10T07:05:31;4.93;;;1.40;;
69305;SDS011;56427;51.580;4.656;2022-07-10T07:07:56;4.07;;;1.20;;
69305;SDS011;56427;51.580;4.656;2022-07-10T07:10:21;8.37;;;1.53;;
69305;SDS011;56427;51.580;4.656;2022-07-10T07:12:47;4.78;;;1.30;;
69305;SDS011;56427;51.580;4.656;2022-07-10T07:15:12;4.33;;;1.23;;
69305;SDS011;56427;51.580;4.656;2022-07-10T07:17:40;5.27;;;1.60;;
69305;SDS011;56427;51.580;4.656;2022-07-10T07:20:23;6.20;;;1.30;;
69305;SDS011;56427;51.580;4.656;2022-07-10T07:23:07;5.63;;;1.50;;
69305;SDS011;56427;51.580;4.656;2022-07-10T07:25:36;5.72;;;1.40;;
69305;SDS011;56427;51.580;4.656;2022-07-10T07:28:05;6.38;;;1.63;;
69305;SDS011;56427;51.580;4.656;2022-07-10T07:30:30;5.97;;;1.50;;
69305;SDS011;56427;51.580;4.656;2022-07-10T07:32:56;5.23;;;1.33;;
69305;SDS011;56427;51.580;4.656;2022-07-10T07:35:21;5.83;;;1.60;;
69305;SDS011;56427;51.580;4.656;2022-07-10T07:37:47;5.72;;;1.40;;
69305;SDS011;56427;51.580;4.656;2022-07-10T07:40:15;9.20;;;1.50;;
69305;SDS011;56427;51.580;4.656;2022-07-10T07:42:44;4.25;;;1.27;;
69305;SDS011;56427;51.580;4.656;2022-07-10T07:45:09;6.73;;;1.60;;
69305;SDS011;56427;51.580;4.656;2022-07-10T07:47:48;6.35;;;1.60;;
69305;SDS011;56427;51.580;4.656;2022-07-10T07:50:16;6.30;;;2.47;;
69305;SDS011;56427;51.580;4.656;2022-07-10T07:52:46;4.78;;;1.45;;
69305;SDS011;56427;51.580;4.656;2022-07-10T07:55:12;5.63;;;1.98;;
69305;SDS011;56427;51.580;4.656;2022-07-10T07:57:39;7.22;;;1.75;;
69305;SDS011;56427;51.580;4.656;2022-07-10T08:00:06;6.13;;;1.30;;
69305;SDS011;56427;51.580;4.656;2022-07-10T08:02:33;8.10;;;1.77;;
69305;SDS011;56427;51.580;4.656;2022-07-10T08:04:59;5.25;;;1.50;;
69305;SDS011;56427;51.580;4.656;2022-07-10T08:07:32;7.10;;;1.67;;
69305;SDS011;56427;51.580;4.656;2022-07-10T08:09:58;6.63;;;1.52;;
69305;SDS011;56427;51.580;4.656;2022-07-10T08:12:24;8.37;;;1.47;;
69305;SDS011;56427;51.580;4.656;2022-07-10T08:14:49;6.30;;;1.87;;
69305;SDS011;56427;51.580;4.656;2022-07-10T08:17:14;5.57;;;1.67;;
69305;SDS011;56427;51.580;4.656;2022-07-10T08:19:39;5.10;;;1.70;;
69305;SDS011;56427;51.580;4.656;2022-07-10T08:22:05;4.90;;;1.60;;
69305;SDS011;56427;51.580;4.656;2022-07-10T08:24:30;5.30;;;1.40;;
69305;SDS011;56427;51.580;4.656;2022-07-10T08:26:56;8.53;;;2.00;;
69305;SDS011;56427;51.580;4.656;2022-07-10T08:29:21;12.10;;;2.60;;
69305;SDS011;56427;51.580;4.656;2022-07-10T08:31:47;4.95;;;1.48;;
69305;SDS011;56427;51.580;4.656;2022-07-10T08:34:12;6.00;;;1.80;;
69305;SDS011;56427;51.580;4.656;2022-07-10T08:36:37;8.20;;;2.50;;
69305;SDS011;56427;51.580;4.656;2022-07-10T08:39:02;7.10;;;2.10;;
69305;SDS011;56427;51.580;4.656;2022-07-10T08:41:28;5.13;;;1.80;;
69305;SDS011;56427;51.580;4.656;2022-07-10T08:43:56;6.85;;;2.05;;
69305;SDS011;56427;51.580;4.656;2022-07-10T08:46:21;9.27;;;2.27;;
69305;SDS011;56427;51.580;4.656;2022-07-10T08:48:48;4.95;;;1.80;;
69305;SDS011;56427;51.580;4.656;2022-07-10T08:51:17;6.55;;;2.30;;
69305;SDS011;56427;51.580;4.656;2022-07-10T08:53:55;7.23;;;2.10;;
69305;SDS011;56427;51.580;4.656;2022-07-10T08:56:22;7.35;;;2.40;;
69305;SDS011;56427;51.580;4.656;2022-07-10T08:58:47;5.80;;;1.90;;
69305;SDS011;56427;51.580;4.656;2022-07-10T09:01:15;3.97;;;1.92;;
69305;SDS011;56427;51.580;4.656;2022-07-10T09:03:40;4.80;;;2.20;;
69305;SDS011;56427;51.580;4.656;2022-07-10T09:06:06;3.63;;;1.60;;
69305;SDS011;56427;51.580;4.656;2022-07-10T09:08:32;5.95;;;1.73;;
69305;SDS011;56427;51.580;4.656;2022-07-10T09:13:52;6.50;;;2.00;;
69305;SDS011;56427;51.580;4.656;2022-07-10T09:16:25;3.92;;;1.80;;
69305;SDS011;56427;51.580;4.656;2022-07-10T09:18:55;5.63;;;1.73;;
69305;SDS011;56427;51.580;4.656;2022-07-10T09:21:21;5.47;;;1.50;;
69305;SDS011;56427;51.580;4.656;2022-07-10T09:23:47;5.60;;;1.80;;
69305;SDS011;56427;51.580;4.656;2022-07-10T09:26:13;5.10;;;2.00;;
69305;SDS011;56427;51.580;4.656;2022-07-10T09:28:39;6.00;;;2.00;;
69305;SDS011;56427;51.580;4.656;2022-07-10T09:31:04;6.80;;;2.07;;
69305;SDS011;56427;51.580;4.656;2022-07-10T09:33:30;7.37;;;1.93;;
69305;SDS011;56427;51.580;4.656;2022-07-10T09:41:14;6.20;;;2.00;;
69305;SDS011;56427;51.580;4.656;2022-07-10T09:46:14;6.15;;;1.90;;
69305;SDS011;56427;51.580;4.656;2022-07-10T09:48:40;7.07;;;1.77;;
69305;SDS011;56427;51.580;4.656;2022-07-10T09:51:09;6.68;;;1.83;;
69305;SDS011;56427;51.580;4.656;2022-07-10T09:53:40;7.15;;;1.70;;
69305;SDS011;56427;51.580;4.656;2022-07-10T09:56:07;5.80;;;1.88;;
69305;SDS011;56427;51.580;4.656;2022-07-10T09:58:34;6.55;;;2.05;;
69305;SDS011;56427;51.580;4.656;2022-07-10T10:01:06;5.77;;;1.93;;
69305;SDS011;56427;51.580;4.656;2022-07-10T10:03:39;6.43;;;2.10;;
69305;SDS011;56427;51.580;4.656;2022-07-10T10:06:08;4.40;;;2.03;;
69305;SDS011;56427;51.580;4.656;2022-07-10T10:11:21;5.78;;;1.70;;
69305;SDS011;56427;51.580;4.656;2022-07-10T10:13:50;5.83;;;1.73;;
69305;SDS011;56427;51.580;4.656;2022-07-10T10:16:17;4.72;;;1.60;;
69305;SDS011;56427;51.580;4.656;2022-07-10T10:18:44;7.97;;;1.80;;
69305;SDS011;56427;51.580;4.656;2022-07-10T10:21:29;7.28;;;1.73;;
69305;SDS011;56427;51.580;4.656;2022-07-10T10:23:55;4.47;;;1.70;;
69305;SDS011;56427;51.580;4.656;2022-07-10T10:26:21;4.13;;;1.58;;
69305;SDS011;56427;51.580;4.656;2022-07-10T10:28:48;4.27;;;1.60;;
69305;SDS011;56427;51.580;4.656;2022-07-10T10:31:20;3.50;;;1.50;;
69305;SDS011;56427;51.580;4.656;2022-07-10T10:33:46;6.30;;;1.63;;
69305;SDS011;56427;51.580;4.656;2022-07-10T10:36:13;5.63;;;1.48;;
69305;SDS011;56427;51.580;4.656;2022-07-10T10:46:34;3.65;;;1.33;;
69305;SDS011;56427;51.580;4.656;2022-07-10T10:49:06;5.90;;;1.38;;
69305;SDS011;56427;51.580;4.656;2022-07-10T10:54:58;5.93;;;1.30;;
69305;SDS011;56427;51.580;4.656;2022-07-10T10:57:43;4.97;;;1.73;;
69305;SDS011;56427;51.580;4.656;2022-07-10T11:00:14;6.97;;;1.70;;
69305;SDS011;56427;51.580;4.656;2022-07-10T11:03:01;4.53;;;1.58;;
69305;SDS011;56427;51.580;4.656;2022-07-10T11:08:03;5.67;;;1.40;;
69305;SDS011;56427;51.580;4.656;2022-07-10T11:10:33;5.32;;;1.60;;
69305;SDS011;56427;51.580;4.656;2022-07-10T11:13:19;4.30;;;1.70;;
69305;SDS011;56427;51.580;4.656;2022-07-10T11:15:45;4.68;;;1.40;;
69305;SDS011;56427;51.580;4.656;2022-07-10T11:18:13;6.85;;;1.75;;
69305;SDS011;56427;51.580;4.656;2022-07-10T11:20:49;6.00;;;1.43;;
69305;SDS011;56427;51.580;4.656;2022-07-10T11:23:29;4.45;;;1.70;;
69305;SDS011;56427;51.580;4.656;2022-07-10T11:26:12;5.68;;;1.27;;
69305;SDS011;56427;51.580;4.656;2022-07-10T11:28:52;4.38;;;1.60;;
69305;SDS011;56427;51.580;4.656;2022-07-10T11:31:19;5.40;;;1.70;;
69305;SDS011;56427;51.580;4.656;2022-07-10T11:33:46;5.00;;;1.77;;
69305;SDS011;56427;51.580;4.656;2022-07-10T11:36:16;5.82;;;1.80;;
69305;SDS011;56427;51.580;4.656;2022-07-10T11:38:47;4.22;;;1.67;;
69305;SDS011;56427;51.580;4.656;2022-07-10T11:46:30;4.63;;;1.63;;
69305;SDS011;56427;51.580;4.656;2022-07-10T11:48:56;5.47;;;1.57;;
69305;SDS011;56427;51.580;4.656;2022-07-10T11:51:23;6.32;;;1.50;;
69305;SDS011;56427;51.580;4.656;2022-07-10T11:54:00;4.65;;;1.65;;
69305;SDS011;56427;51.580;4.656;2022-07-10T11:56:30;5.57;;;1.58;;
69305;SDS011;56427;51.580;4.656;2022-07-10T11:59:02;4.60;;;1.58;;
69305;SDS011;56427;51.580;4.656;2022-07-10T12:01:32;5.20;;;1.93;;
69305;SDS011;56427;51.580;4.656;2022-07-10T12:04:00;4.57;;;1.50;;
69305;SDS011;56427;51.580;4.656;2022-07-10T12:06:28;5.03;;;1.70;;
69305;SDS011;56427;51.580;4.656;2022-07-10T12:08:54;5.40;;;1.77;;
69305;SDS011;56427;51.580;4.656;2022-07-10T12:11:20;5.23;;;1.80;;
69305;SDS011;56427;51.580;4.656;2022-07-10T12:13:47;7.03;;;1.63;;
69305;SDS011;56427;51.580;4.656;2022-07-10T12:16:17;5.95;;;1.42;;
69305;SDS011;56427;51.580;4.656;2022-07-10T12:18:42;6.88;;;1.73;;
69305;SDS011;56427;51.580;4.656;2022-07-10T12:21:09;5.05;;;1.30;;
69305;SDS011;56427;51.580;4.656;2022-07-10T12:23:35;4.73;;;1.30;;
69305;SDS011;56427;51.580;4.656;2022-07-10T12:26:04;3.50;;;1.48;;
69305;SDS011;56427;51.580;4.656;2022-07-10T12:28:50;4.40;;;1.30;;
69305;SDS011;56427;51.580;4.656;2022-07-10T12:31:20;4.25;;;1.20;;
69305;SDS011;56427;51.580;4.656;2022-07-10T12:33:57;5.30;;;1.40;;
69305;SDS011;56427;51.580;4.656;2022-07-10T12:39:13;5.57;;;1.40;;
69305;SDS011;56427;51.580;4.656;2022-07-10T12:41:55;4.28;;;1.40;;
69305;SDS011;56427;51.580;4.656;2022-07-10T12:44:38;5.07;;;1.30;;
69305;SDS011;56427;51.580;4.656;2022-07-10T12:47:09;3.83;;;1.40;;
69305;SDS011;56427;51.580;4.656;2022-07-10T12:52:21;2.92;;;1.20;;
69305;SDS011;56427;51.580;4.656;2022-07-10T12:54:48;9.13;;;1.55;;
69305;SDS011;56427;51.580;4.656;2022-07-10T12:57:14;3.90;;;1.20;;
69305;SDS011;56427;51.580;4.656;2022-07-10T12:59:39;3.13;;;1.30;;
69305;SDS011;56427;51.580;4.656;2022-07-10T13:02:16;4.77;;;1.27;;
69305;SDS011;56427;51.580;4.656;2022-07-10T13:04:54;4.65;;;1.13;;
69305;SDS011;56427;51.580;4.656;2022-07-10T13:07:28;3.22;;;1.00;;
69305;SDS011;56427;51.580;4.656;2022-07-10T13:10:00;3.97;;;1.13;;
69305;SDS011;56427;51.580;4.656;2022-07-10T13:12:27;3.85;;;1.35;;
69305;SDS011;56427;51.580;4.656;2022-07-10T13:14:53;4.80;;;1.10;;
69305;SDS011;56427;51.580;4.656;2022-07-10T13:17:18;2.80;;;1.00;;
69305;SDS011;56427;51.580;4.656;2022-07-10T13:19:44;3.67;;;1.20;;
69305;SDS011;56427;51.580;4.656;2022-07-10T13:22:10;5.50;;;2.00;;
69305;SDS011;56427;51.580;4.656;2022-07-10T13:24:35;4.40;;;1.57;;
69305;SDS011;56427;51.580;4.656;2022-07-10T13:27:00;5.60;;;1.17;;
69305;SDS011;56427;51.580;4.656;2022-07-10T13:29:25;3.20;;;1.00;;
69305;SDS011;56427;51.580;4.656;2022-07-10T13:31:51;3.90;;;1.23;;
69305;SDS011;56427;51.580;4.656;2022-07-10T13:34:16;2.97;;;1.10;;
69305;SDS011;56427;51.580;4.656;2022-07-10T13:36:42;3.47;;;1.20;;
69305;SDS011;56427;51.580;4.656;2022-07-10T13:39:08;3.20;;;1.00;;
69305;SDS011;56427;51.580;4.656;2022-07-10T13:41:33;4.57;;;1.20;;
69305;SDS011;56427;51.580;4.656;2022-07-10T13:43:58;4.53;;;1.33;;
69305;SDS011;56427;51.580;4.656;2022-07-10T13:46:24;3.22;;;0.82;;
69305;SDS011;56427;51.580;4.656;2022-07-10T13:48:49;3.47;;;0.90;;
69305;SDS011;56427;51.580;4.656;2022-07-10T13:51:14;2.97;;;1.27;;
69305;SDS011;56427;51.580;4.656;2022-07-10T13:53:40;4.73;;;1.10;;
69305;SDS011;56427;51.580;4.656;2022-07-10T13:56:06;5.07;;;1.07;;
69305;SDS011;56427;51.580;4.656;2022-07-10T13:58:32;3.80;;;0.85;;
69305;SDS011;56427;51.580;4.656;2022-07-10T14:00:59;6.70;;;1.30;;
69305;SDS011;56427;51.580;4.656;2022-07-10T14:03:25;4.33;;;1.23;;
69305;SDS011;56427;51.580;4.656;2022-07-10T14:05:51;3.30;;;1.30;;
69305;SDS011;56427;51.580;4.656;2022-07-10T14:08:16;7.13;;;1.80;;
69305;SDS011;56427;51.580;4.656;2022-07-10T14:10:41;3.53;;;0.97;;
69305;SDS011;56427;51.580;4.656;2022-07-10T14:13:07;3.90;;;1.10;;
69305;SDS011;56427;51.580;4.656;2022-07-10T14:15:33;5.15;;;1.00;;
69305;SDS011;56427;51.580;4.656;2022-07-10T14:18:00;4.50;;;1.00;;
69305;SDS011;56427;51.580;4.656;2022-07-10T14:20:25;2.93;;;1.00;;
69305;SDS011;56427;51.580;4.656;2022-07-10T14:22:51;2.87;;;1.40;;
69305;SDS011;56427;51.580;4.656;2022-07-10T14:25:16;2.60;;;1.00;;
69305;SDS011;56427;51.580;4.656;2022-07-10T14:27:42;2.73;;;1.10;;
69305;SDS011;56427;51.580;4.656;2022-07-10T14:30:07;5.93;;;1.77;;
69305;SDS011;56427;51.580;4.656;2022-07-10T14:32:33;3.28;;;1.13;;
69305;SDS011;56427;51.580;4.656;2022-07-10T14:34:58;2.90;;;1.20;;
69305;SDS011;56427;51.580;4.656;2022-07-10T14:37:24;3.43;;;1.00;;
69305;SDS011;56427;51.580;4.656;2022-07-10T14:39:49;4.87;;;1.17;;
69305;SDS011;56427;51.580;4.656;2022-07-10T14:42:14;6.50;;;1.33;;
69305;SDS011;56427;51.580;4.656;2022-07-10T14:44:40;4.50;;;1.30;;
69305;SDS011;56427;51.580;4.656;2022-07-10T14:47:05;6.70;;;1.13;;
69305;SDS011;56427;51.580;4.656;2022-07-10T14:49:30;4.83;;;1.27;;
69305;SDS011;56427;51.580;4.656;2022-07-10T14:51:56;5.30;;;1.37;;
69305;SDS011;56427;51.580;4.656;2022-07-10T14:54:21;6.27;;;1.87;;
69305;SDS011;56427;51.580;4.656;2022-07-10T14:56:47;3.80;;;1.10;;
69305;SDS011;56427;51.580;4.656;2022-07-10T14:59:12;4.70;;;1.40;;
69305;SDS011;56427;51.580;4.656;2022-07-10T15:01:38;3.60;;;1.13;;
69305;SDS011;56427;51.580;4.656;2022-07-10T15:04:03;7.77;;;1.50;;
69305;SDS011;56427;51.580;4.656;2022-07-10T15:06:29;3.60;;;1.20;;
69305;SDS011;56427;51.580;4.656;2022-07-10T15:08:54;4.47;;;1.60;;
69305;SDS011;56427;51.580;4.656;2022-07-10T15:11:20;4.60;;;1.80;;
69305;SDS011;56427;51.580;4.656;2022-07-10T15:13:47;6.78;;;1.88;;
69305;SDS011;56427;51.580;4.656;2022-07-10T15:16:18;3.42;;;1.70;;
69305;SDS011;56427;51.580;4.656;2022-07-10T15:18:43;4.93;;;1.58;;
69305;SDS011;56427;51.580;4.656;2022-07-10T15:21:09;3.70;;;1.60;;
69305;SDS011;56427;51.580;4.656;2022-07-10T15:23:36;3.45;;;1.48;;